sensor_id;sensor_type;location;lat;lon;timestamp;pressure;altitude;pressure_sealevel;temperature;humidity
8894;BME280;4483;48.622;9.230;2024-01-30T00:01:51;99260.59;;;1.81;100.00
8894;BME280;4483;48.622;9.230;2024-01-30T00:04:19;99261.41;;;1.80;100.00
8894;BME280;4483;48.622;9.230;2024-01-30T00:06:45;99262.25;;;1.79;100.00
8894;BME280;4483;48.622;9.230;2024-01-30T00:09:12;99260.59;;;1.79;100.00
8894;BME280;4483;48.622;9.230;2024-01-30T00:11:39;99257.19;;;1.79;100.00
8894;BME280;4483;48.622;9.230;2024-01-30T00:14:06;99257.19;;;1.79;100.00
8894;BME280;4483;48.622;9.230;2024-01-30T00:16:32;99258.84;;;1.77;100.00
8894;BME280;4483;48.622;9.230;2024-01-30T00:18:59;99260.50;;;1.75;100.00
8894;BME280;4483;48.622;9.230;2024-01-30T00:21:28;99263.88;;;1.74;100.00
8894;BME280;4483;48.622;9.230;2024-01-30T00:23:55;99261.28;;;1.71;100.00
8894;BME280;4483;48.622;9.230;2024-01-30T00:26:22;99262.94;;;1.70;100.00
8894;BME280;4483;48.622;9.230;2024-01-30T00:28:49;99260.38;;;1.69;100.00
8894;BME280;4483;48.622;9.230;2024-01-30T00:31:15;99257.00;;;1.68;100.00
8894;BME280;4483;48.622;9.230;2024-01-30T00:33:42;99250.22;;;1.69;100.00
8894;BME280;4483;48.622;9.230;2024-01-30T00:36:09;99262.94;;;1.69;100.00
8894;BME280;4483;48.622;9.230;2024-01-30T00:38:37;99258.72;;;1.69;100.00
8894;BME280;4483;48.622;9.230;2024-01-30T00:41:07;99262.09;;;1.68;100.00
8894;BME280;4483;48.622;9.230;2024-01-30T00:43:34;99256.97;;;1.67;100.00
8894;BME280;4483;48.622;9.230;2024-01-30T00:46:01;99264.56;;;1.65;100.00
8894;BME280;4483;48.622;9.230;2024-01-30T00:48:28;99258.56;;;1.62;100.00
8894;BME280;4483;48.622;9.230;2024-01-30T00:50:55;99268.69;;;1.59;100.00
8894;BME280;4483;48.622;9.230;2024-01-30T00:53:21;99272.00;;;1.55;100.00
8894;BME280;4483;48.622;9.230;2024-01-30T00:55:49;99270.31;;;1.54;100.00
8894;BME280;4483;48.622;9.230;2024-01-30T00:58:16;99265.25;;;1.55;100.00
8894;BME280;4483;48.622;9.230;2024-01-30T01:00:44;99265.25;;;1.55;100.00
8894;BME280;4483;48.622;9.230;2024-01-30T01:03:11;99261.00;;;1.56;100.00
8894;BME280;4483;48.622;9.230;2024-01-30T01:05:39;99255.88;;;1.53;100.00
8894;BME280;4483;48.622;9.230;2024-01-30T01:08:06;99259.22;;;1.50;100.00
8894;BME280;4483;48.622;9.230;2024-01-30T01:10:34;99254.94;;;1.48;100.00
8894;BME280;4483;48.622;9.230;2024-01-30T01:13:02;99255.00;;;1.51;100.00
8894;BME280;4483;48.622;9.230;2024-01-30T01:15:29;99263.28;;;1.41;100.00
8894;BME280;4483;48.622;9.230;2024-01-30T01:17:55;99262.34;;;1.36;100.00
8894;BME280;4483;48.622;9.230;2024-01-30T01:20:22;99260.59;;;1.33;100.00
8894;BME280;4483;48.622;9.230;2024-01-30T01:22:48;99259.75;;;1.33;100.00
8894;BME280;4483;48.622;9.230;2024-01-30T01:25:15;99254.69;;;1.34;100.00
8894;BME280;4483;48.622;9.230;2024-01-30T01:27:42;99259.78;;;1.36;100.00
8894;BME280;4483;48.622;9.230;2024-01-30T01:30:12;99254.78;;;1.39;100.00
8894;BME280;4483;48.622;9.230;2024-01-30T01:32:44;99248.88;;;1.41;100.00
8894;BME280;4483;48.622;9.230;2024-01-30T01:35:16;99258.22;;;1.41;100.00
8894;BME280;4483;48.622;9.230;2024-01-30T01:37:42;99262.47;;;1.43;100.00
8894;BME280;4483;48.622;9.230;2024-01-30T01:40:09;99252.28;;;1.42;100.00
8894;BME280;4483;48.622;9.230;2024-01-30T01:42:36;99253.13;;;1.41;100.00
8894;BME280;4483;48.622;9.230;2024-01-30T01:45:04;99262.41;;;1.39;100.00
8894;BME280;4483;48.622;9.230;2024-01-30T01:47:32;99258.13;;;1.38;100.00
8894;BME280;4483;48.622;9.230;2024-01-30T01:49:58;99249.63;;;1.36;100.00
8894;BME280;4483;48.622;9.230;2024-01-30T01:52:25;99253.91;;;1.38;100.00
8894;BME280;4483;48.622;9.230;2024-01-30T01:54:52;99256.50;;;1.40;100.00
8894;BME280;4483;48.622;9.230;2024-01-30T01:57:19;99259.03;;;1.41;100.00
8894;BME280;4483;48.622;9.230;2024-01-30T01:59:46;99259.03;;;1.40;100.00
8894;BME280;4483;48.622;9.230;2024-01-30T02:02:14;99263.28;;;1.41;100.00
8894;BME280;4483;48.622;9.230;2024-01-30T02:04:45;99257.31;;;1.39;100.00
8894;BME280;4483;48.622;9.230;2024-01-30T02:07:12;99259.88;;;1.39;100.00
8894;BME280;4483;48.622;9.230;2024-01-30T02:09:38;99260.69;;;1.39;100.00
8894;BME280;4483;48.622;9.230;2024-01-30T02:12:06;99261.56;;;1.40;100.00
8894;BME280;4483;48.622;9.230;2024-01-30T02:14:33;99259.03;;;1.40;100.00
8894;BME280;4483;48.622;9.230;2024-01-30T02:16:59;99262.44;;;1.40;100.00
8894;BME280;4483;48.622;9.230;2024-01-30T02:19:26;99265.84;;;1.41;100.00
8894;BME280;4483;48.622;9.230;2024-01-30T02:21:54;99261.53;;;1.38;100.00
8894;BME280;4483;48.622;9.230;2024-01-30T02:24:21;99262.38;;;1.37;100.00
8894;BME280;4483;48.622;9.230;2024-01-30T02:26:47;99264.84;;;1.34;100.00
8894;BME280;4483;48.622;9.230;2024-01-30T02:29:14;99260.63;;;1.35;100.00
8894;BME280;4483;48.622;9.230;2024-01-30T02:31:40;99262.31;;;1.34;100.00
8894;BME280;4483;48.622;9.230;2024-01-30T02:34:07;99257.22;;;1.34;100.00
8894;BME280;4483;48.622;9.230;2024-01-30T02:36:34;99262.28;;;1.33;100.00
8894;BME280;4483;48.622;9.230;2024-01-30T02:39:02;99255.44;;;1.30;100.00
8894;BME280;4483;48.622;9.230;2024-01-30T02:41:29;99256.28;;;1.28;100.00
8894;BME280;4483;48.622;9.230;2024-01-30T02:43:55;99256.25;;;1.26;100.00
8894;BME280;4483;48.622;9.230;2024-01-30T02:46:22;99257.94;;;1.26;100.00
8894;BME280;4483;48.622;9.230;2024-01-30T02:48:48;99254.50;;;1.24;100.00
8894;BME280;4483;48.622;9.230;2024-01-30T02:51:15;99257.88;;;1.23;100.00
8894;BME280;4483;48.622;9.230;2024-01-30T02:53:42;99255.28;;;1.21;100.00
8894;BME280;4483;48.622;9.230;2024-01-30T02:56:10;99251.06;;;1.22;100.00
8894;BME280;4483;48.622;9.230;2024-01-30T02:58:37;99250.16;;;1.18;100.00
8894;BME280;4483;48.622;9.230;2024-01-30T03:01:04;99256.91;;;1.18;100.00
8894;BME280;4483;48.622;9.230;2024-01-30T03:03:30;99261.09;;;1.16;100.00
8894;BME280;4483;48.622;9.230;2024-01-30T03:05:57;99258.53;;;1.14;100.00
8894;BME280;4483;48.622;9.230;2024-01-30T03:08:23;99254.28;;;1.12;100.00
8894;BME280;4483;48.622;9.230;2024-01-30T03:10:50;99252.56;;;1.11;100.00
8894;BME280;4483;48.622;9.230;2024-01-30T03:13:18;99256.78;;;1.10;100.00
8894;BME280;4483;48.622;9.230;2024-01-30T03:15:44;99254.28;;;1.12;100.00
8894;BME280;4483;48.622;9.230;2024-01-30T03:18:11;99262.72;;;1.12;100.00
8894;BME280;4483;48.622;9.230;2024-01-30T03:20:38;99255.94;;;1.10;100.00
8894;BME280;4483;48.622;9.230;2024-01-30T03:23:05;99256.75;;;1.09;100.00
8894;BME280;4483;48.622;9.230;2024-01-30T03:25:31;99250.78;;;1.07;100.00
8894;BME280;4483;48.622;9.230;2024-01-30T03:27:58;99259.25;;;1.07;100.00
8894;BME280;4483;48.622;9.230;2024-01-30T03:30:26;99260.09;;;1.06;100.00
8894;BME280;4483;48.622;9.230;2024-01-30T03:32:52;99257.50;;;1.04;100.00
8894;BME280;4483;48.622;9.230;2024-01-30T03:35:19;99264.25;;;1.02;100.00
8894;BME280;4483;48.622;9.230;2024-01-30T03:37:45;99263.41;;;1.02;100.00
8894;BME280;4483;48.622;9.230;2024-01-30T03:40:13;99254.91;;;1.01;100.00
8894;BME280;4483;48.622;9.230;2024-01-30T03:42:40;99261.72;;;1.02;100.00
8894;BME280;4483;48.622;9.230;2024-01-30T03:45:07;99258.25;;;0.99;100.00
8894;BME280;4483;48.622;9.230;2024-01-30T03:47:35;99254.03;;;0.99;100.00
8894;BME280;4483;48.622;9.230;2024-01-30T03:50:02;99259.94;;;0.97;100.00
8894;BME280;4483;48.622;9.230;2024-01-30T03:52:30;99262.41;;;0.95;100.00
8894;BME280;4483;48.622;9.230;2024-01-30T03:54:56;99264.06;;;0.93;100.00
8894;BME280;4483;48.622;9.230;2024-01-30T03:57:23;99262.34;;;0.92;100.00
8894;BME280;4483;48.622;9.230;2024-01-30T03:59:49;99264.88;;;0.92;100.00
8894;BME280;4483;48.622;9.230;2024-01-30T04:02:16;99260.69;;;0.93;100.00
8894;BME280;4483;48.622;9.230;2024-01-30T04:04:44;99258.94;;;0.92;100.00
8894;BME280;4483;48.622;9.230;2024-01-30T04:07:11;99264.00;;;0.90;100.00
8894;BME280;4483;48.622;9.230;2024-01-30T04:09:38;99269.91;;;0.89;100.00
8894;BME280;4483;48.622;9.230;2024-01-30T04:12:05;99267.31;;;0.86;100.00
8894;BME280;4483;48.622;9.230;2024-01-30T04:14:32;99270.69;;;0.85;100.00
8894;BME280;4483;48.622;9.230;2024-01-30T04:16:58;99267.28;;;0.85;100.00
8894;BME280;4483;48.622;9.230;2024-01-30T04:19:25;99268.06;;;0.82;100.00
8894;BME280;4483;48.622;9.230;2024-01-30T04:21:53;99264.66;;;0.80;100.00
8894;BME280;4483;48.622;9.230;2024-01-30T04:24:19;99264.59;;;0.79;100.00
8894;BME280;4483;48.622;9.230;2024-01-30T04:26:46;99269.66;;;0.77;100.00
8894;BME280;4483;48.622;9.230;2024-01-30T04:29:13;99257.84;;;0.78;100.00
8894;BME280;4483;48.622;9.230;2024-01-30T04:31:39;99255.28;;;0.78;100.00
8894;BME280;4483;48.622;9.230;2024-01-30T04:34:06;99258.66;;;0.77;100.00
8894;BME280;4483;48.622;9.230;2024-01-30T04:36:32;99256.94;;;0.76;100.00
8894;BME280;4483;48.622;9.230;2024-01-30T04:39:00;99261.22;;;0.77;100.00
8894;BME280;4483;48.622;9.230;2024-01-30T04:41:27;99255.25;;;0.75;100.00
8894;BME280;4483;48.622;9.230;2024-01-30T04:43:56;99257.72;;;0.73;100.00
8894;BME280;4483;48.622;9.230;2024-01-30T04:46:23;99261.09;;;0.72;100.00
8894;BME280;4483;48.622;9.230;2024-01-30T04:48:50;99268.69;;;0.71;100.00
8894;BME280;4483;48.622;9.230;2024-01-30T04:51:16;99268.66;;;0.69;100.00
8894;BME280;4483;48.622;9.230;2024-01-30T04:53:43;99273.66;;;0.68;100.00
8894;BME280;4483;48.622;9.230;2024-01-30T04:56:11;99273.63;;;0.65;100.00
8894;BME280;4483;48.622;9.230;2024-01-30T04:58:37;99267.66;;;0.63;100.00
8894;BME280;4483;48.622;9.230;2024-01-30T05:01:04;99269.28;;;0.59;100.00
8894;BME280;4483;48.622;9.230;2024-01-30T05:03:33;99275.19;;;0.58;100.00
8894;BME280;4483;48.622;9.230;2024-01-30T05:05:59;99276.84;;;0.58;100.00
8894;BME280;4483;48.622;9.230;2024-01-30T05:08:26;99269.25;;;0.58;100.00
8894;BME280;4483;48.622;9.230;2024-01-30T05:10:52;99264.16;;;0.58;100.00
8894;BME280;4483;48.622;9.230;2024-01-30T05:13:20;99277.72;;;0.58;100.00
8894;BME280;4483;48.622;9.230;2024-01-30T05:15:47;99279.34;;;0.55;100.00
8894;BME280;4483;48.622;9.230;2024-01-30T05:18:14;99280.09;;;0.52;100.00
8894;BME280;4483;48.622;9.230;2024-01-30T05:20:40;99273.34;;;0.51;100.00
8894;BME280;4483;48.622;9.230;2024-01-30T05:23:07;99269.91;;;0.49;100.00
8894;BME280;4483;48.622;9.230;2024-01-30T05:25:33;99278.31;;;0.48;100.00
8894;BME280;4483;48.622;9.230;2024-01-30T05:28:00;99276.53;;;0.44;100.00
8894;BME280;4483;48.622;9.230;2024-01-30T05:30:28;99279.91;;;0.43;100.00
8894;BME280;4483;48.622;9.230;2024-01-30T05:32:55;99277.34;;;0.42;100.00
8894;BME280;4483;48.622;9.230;2024-01-30T05:35:21;99269.72;;;0.40;100.00
8894;BME280;4483;48.622;9.230;2024-01-30T05:37:48;99278.13;;;0.39;100.00
8894;BME280;4483;48.622;9.230;2024-01-30T05:40:15;99277.22;;;0.37;100.00
8894;BME280;4483;48.622;9.230;2024-01-30T05:42:42;99276.44;;;0.38;100.00
8894;BME280;4483;48.622;9.230;2024-01-30T05:45:09;99287.41;;;0.39;100.00
8894;BME280;4483;48.622;9.230;2024-01-30T05:47:37;99277.22;;;0.37;100.00
8894;BME280;4483;48.622;9.230;2024-01-30T05:50:05;99284.03;;;0.38;100.00
8894;BME280;4483;48.622;9.230;2024-01-30T05:52:31;99283.19;;;0.39;100.00
8894;BME280;4483;48.622;9.230;2024-01-30T05:54:58;99280.66;;;0.39;100.00
8894;BME280;4483;48.622;9.230;2024-01-30T05:57:24;99283.13;;;0.36;100.00
8894;BME280;4483;48.622;9.230;2024-01-30T05:59:51;99277.97;;;0.33;100.00
8894;BME280;4483;48.622;9.230;2024-01-30T06:02:17;99277.97;;;0.33;100.00
8894;BME280;4483;48.622;9.230;2024-01-30T06:04:45;99281.34;;;0.32;100.00
8894;BME280;4483;48.622;9.230;2024-01-30T06:07:12;99283.84;;;0.31;100.00
8894;BME280;4483;48.622;9.230;2024-01-30T06:09:39;99285.56;;;0.32;100.00
8894;BME280;4483;48.622;9.230;2024-01-30T06:12:06;99275.31;;;0.27;100.00
8894;BME280;4483;48.622;9.230;2024-01-30T06:14:33;99282.94;;;0.27;100.00
8894;BME280;4483;48.622;9.230;2024-01-30T06:16:59;99287.09;;;0.25;100.00
8894;BME280;4483;48.622;9.230;2024-01-30T06:19:26;99285.31;;;0.21;100.00
8894;BME280;4483;48.622;9.230;2024-01-30T06:21:54;99292.00;;;0.18;100.00
8894;BME280;4483;48.622;9.230;2024-01-30T06:24:21;99290.25;;;0.17;100.00
8894;BME280;4483;48.622;9.230;2024-01-30T06:26:47;99287.78;;;0.18;100.00
8894;BME280;4483;48.622;9.230;2024-01-30T06:29:14;99298.81;;;0.20;100.00
8894;BME280;4483;48.622;9.230;2024-01-30T06:31:42;99292.03;;;0.19;100.00
8894;BME280;4483;48.622;9.230;2024-01-30T06:34:08;99292.88;;;0.18;100.00
8894;BME280;4483;48.622;9.230;2024-01-30T06:36:36;99294.53;;;0.18;100.00
8894;BME280;4483;48.622;9.230;2024-01-30T06:39:04;99292.00;;;0.18;100.00
8894;BME280;4483;48.622;9.230;2024-01-30T06:41:31;99286.16;;;0.20;100.00
8894;BME280;4483;48.622;9.230;2024-01-30T06:43:58;99287.00;;;0.22;100.00
8894;BME280;4483;48.622;9.230;2024-01-30T06:46:25;99287.91;;;0.24;100.00
8894;BME280;4483;48.622;9.230;2024-01-30T06:48:52;99288.78;;;0.25;100.00
8894;BME280;4483;48.622;9.230;2024-01-30T06:51:19;99286.25;;;0.25;100.00
8894;BME280;4483;48.622;9.230;2024-01-30T06:53:45;99294.72;;;0.25;100.00
8894;BME280;4483;48.622;9.230;2024-01-30T06:56:13;99294.72;;;0.25;100.00
8894;BME280;4483;48.622;9.230;2024-01-30T06:58:40;99293.03;;;0.26;100.00
8894;BME280;4483;48.622;9.230;2024-01-30T07:01:07;99289.66;;;0.25;100.00
8894;BME280;4483;48.622;9.230;2024-01-30T07:03:34;99294.78;;;0.28;100.00
8894;BME280;4483;48.622;9.230;2024-01-30T07:06:01;99300.75;;;0.32;100.00
8894;BME280;4483;48.622;9.230;2024-01-30T07:08:27;99298.34;;;0.36;100.00
8894;BME280;4483;48.622;9.230;2024-01-30T07:10:54;99303.69;;;0.48;100.00
8894;BME280;4483;48.622;9.230;2024-01-30T07:13:22;99310.94;;;0.70;100.00
8894;BME280;4483;48.622;9.230;2024-01-30T07:15:49;99311.53;;;0.99;100.00
8894;BME280;4483;48.622;9.230;2024-01-30T07:18:16;99313.00;;;1.28;100.00
8894;BME280;4483;48.622;9.230;2024-01-30T07:20:42;99312.19;;;1.32;100.00
8894;BME280;4483;48.622;9.230;2024-01-30T07:23:11;99312.94;;;1.27;100.00
8894;BME280;4483;48.622;9.230;2024-01-30T07:25:39;99316.41;;;1.30;100.00
8894;BME280;4483;48.622;9.230;2024-01-30T07:28:06;99307.91;;;1.28;100.00
8894;BME280;4483;48.622;9.230;2024-01-30T07:30:36;99314.69;;;1.29;100.00
8894;BME280;4483;48.622;9.230;2024-01-30T07:33:03;99319.25;;;1.47;100.00
8894;BME280;4483;48.622;9.230;2024-01-30T07:35:29;99318.03;;;1.71;100.00
8894;BME280;4483;48.622;9.230;2024-01-30T07:37:56;99314.41;;;2.07;100.00
8894;BME280;4483;48.622;9.230;2024-01-30T07:40:23;99304.53;;;2.26;100.00
8894;BME280;4483;48.622;9.230;2024-01-30T07:42:50;99315.81;;;2.42;100.00
8894;BME280;4483;48.622;9.230;2024-01-30T07:45:16;99304.06;;;2.53;100.00
8894;BME280;4483;48.622;9.230;2024-01-30T07:47:48;99304.03;;;2.48;100.00
8894;BME280;4483;48.622;9.230;2024-01-30T07:50:15;99309.13;;;2.48;100.00
8894;BME280;4483;48.622;9.230;2024-01-30T07:52:42;99310.00;;;2.52;100.00
8894;BME280;4483;48.622;9.230;2024-01-30T07:55:09;99313.66;;;2.67;100.00
8894;BME280;4483;48.622;9.230;2024-01-30T07:57:35;99313.03;;;2.85;100.00
8894;BME280;4483;48.622;9.230;2024-01-30T08:00:05;99318.25;;;2.97;99.64
8894;BME280;4483;48.622;9.230;2024-01-30T08:02:32;99318.41;;;3.08;99.23
8894;BME280;4483;48.622;9.230;2024-01-30T08:05:01;99320.16;;;3.12;98.31
8894;BME280;4483;48.622;9.230;2024-01-30T08:07:27;99313.53;;;3.26;98.30
8894;BME280;4483;48.622;9.230;2024-01-30T08:09:55;99312.78;;;3.36;97.43
8894;BME280;4483;48.622;9.230;2024-01-30T08:12:21;99311.22;;;3.47;97.43
8894;BME280;4483;48.622;9.230;2024-01-30T08:14:48;99313.06;;;3.58;96.62
8894;BME280;4483;48.622;9.230;2024-01-30T08:17:15;99308.84;;;3.62;96.50
8894;BME280;4483;48.622;9.230;2024-01-30T08:19:41;99309.81;;;3.74;96.26
8894;BME280;4483;48.622;9.230;2024-01-30T08:22:09;99310.91;;;3.99;95.92
8894;BME280;4483;48.622;9.230;2024-01-30T08:24:36;99295.75;;;4.16;95.44
8894;BME280;4483;48.622;9.230;2024-01-30T08:27:03;99298.50;;;4.46;94.12
8894;BME280;4483;48.622;9.230;2024-01-30T08:29:30;99294.47;;;4.79;93.31
8894;BME280;4483;48.622;9.230;2024-01-30T08:31:57;99302.31;;;5.23;93.34
8894;BME280;4483;48.622;9.230;2024-01-30T08:34:24;99297.31;;;5.62;91.82
8894;BME280;4483;48.622;9.230;2024-01-30T08:36:51;99287.16;;;5.95;90.64
8894;BME280;4483;48.622;9.230;2024-01-30T08:39:19;99288.88;;;6.15;89.17
8894;BME280;4483;48.622;9.230;2024-01-30T08:41:46;99294.00;;;6.16;86.33
8894;BME280;4483;48.622;9.230;2024-01-30T08:44:12;99293.97;;;6.36;87.05
8894;BME280;4483;48.622;9.230;2024-01-30T08:46:39;99289.72;;;6.57;86.53
8894;BME280;4483;48.622;9.230;2024-01-30T08:49:05;99288.78;;;6.78;85.19
8894;BME280;4483;48.622;9.230;2024-01-30T08:51:33;99291.25;;;7.03;84.81
8894;BME280;4483;48.622;9.230;2024-01-30T08:54:00;99295.44;;;7.26;83.98
8894;BME280;4483;48.622;9.230;2024-01-30T08:56:28;99291.94;;;7.42;83.19
8894;BME280;4483;48.622;9.230;2024-01-30T08:58:54;99297.84;;;7.59;82.10
8894;BME280;4483;48.622;9.230;2024-01-30T09:01:21;99290.13;;;7.62;80.85
8894;BME280;4483;48.622;9.230;2024-01-30T09:03:47;99294.47;;;7.54;80.45
8894;BME280;4483;48.622;9.230;2024-01-30T09:06:14;99294.63;;;7.25;79.05
8894;BME280;4483;48.622;9.230;2024-01-30T09:08:41;99299.00;;;6.90;79.07
8894;BME280;4483;48.622;9.230;2024-01-30T09:11:12;99293.06;;;6.80;80.90
8894;BME280;4483;48.622;9.230;2024-01-30T09:13:41;99293.94;;;6.72;81.82
8894;BME280;4483;48.622;9.230;2024-01-30T09:16:08;99299.91;;;6.72;82.31
8894;BME280;4483;48.622;9.230;2024-01-30T09:18:35;99306.72;;;6.70;82.42
8894;BME280;4483;48.622;9.230;2024-01-30T09:21:02;99296.53;;;6.63;81.77
8894;BME280;4483;48.622;9.230;2024-01-30T09:23:28;99305.06;;;6.57;82.61
8894;BME280;4483;48.622;9.230;2024-01-30T09:25:55;99308.47;;;6.55;82.51
8894;BME280;4483;48.622;9.230;2024-01-30T09:28:22;99305.03;;;6.62;82.67
8894;BME280;4483;48.622;9.230;2024-01-30T09:30:50;99310.13;;;6.86;82.51
8894;BME280;4483;48.622;9.230;2024-01-30T09:33:16;99306.59;;;7.12;82.23
8894;BME280;4483;48.622;9.230;2024-01-30T09:35:43;99312.50;;;7.36;81.43
8894;BME280;4483;48.622;9.230;2024-01-30T09:38:10;99309.91;;;7.43;80.79
8894;BME280;4483;48.622;9.230;2024-01-30T09:40:36;99311.59;;;7.46;80.14
8894;BME280;4483;48.622;9.230;2024-01-30T09:43:03;99308.16;;;7.50;79.92
8894;BME280;4483;48.622;9.230;2024-01-30T09:45:32;99307.22;;;7.66;79.52
8894;BME280;4483;48.622;9.230;2024-01-30T09:48:00;99309.66;;;7.87;79.80
8894;BME280;4483;48.622;9.230;2024-01-30T09:50:27;99294.19;;;7.96;78.87
8894;BME280;4483;48.622;9.230;2024-01-30T09:52:55;99307.94;;;7.86;77.86
8894;BME280;4483;48.622;9.230;2024-01-30T09:55:24;99313.19;;;7.71;78.12
8894;BME280;4483;48.622;9.230;2024-01-30T09:57:51;99313.25;;;7.59;77.68
8894;BME280;4483;48.622;9.230;2024-01-30T10:00:17;99304.75;;;7.51;78.93
8894;BME280;4483;48.622;9.230;2024-01-30T10:02:44;99313.28;;;7.54;79.31
8894;BME280;4483;48.622;9.230;2024-01-30T10:05:15;99313.19;;;7.71;79.59
8894;BME280;4483;48.622;9.230;2024-01-30T10:07:55;99301.97;;;7.84;79.52
8894;BME280;4483;48.622;9.230;2024-01-30T10:10:23;99299.31;;;7.96;79.21
8894;BME280;4483;48.622;9.230;2024-01-30T10:12:50;99299.28;;;8.00;79.10
8894;BME280;4483;48.622;9.230;2024-01-30T10:15:17;99296.69;;;8.05;78.95
8894;BME280;4483;48.622;9.230;2024-01-30T10:17:44;99295.78;;;8.12;78.70
8894;BME280;4483;48.622;9.230;2024-01-30T10:20:13;99301.69;;;8.18;78.24
8894;BME280;4483;48.622;9.230;2024-01-30T10:22:40;99298.28;;;8.20;77.73
8894;BME280;4483;48.622;9.230;2024-01-30T10:25:07;99299.19;;;8.14;77.96
8894;BME280;4483;48.622;9.230;2024-01-30T10:27:36;99296.63;;;8.09;77.94
8894;BME280;4483;48.622;9.230;2024-01-30T10:30:03;99287.28;;;8.04;77.94
8894;BME280;4483;48.622;9.230;2024-01-30T10:32:29;99289.91;;;7.98;78.50
8894;BME280;4483;48.622;9.230;2024-01-30T10:34:56;99285.69;;;7.91;78.41
8894;BME280;4483;48.622;9.230;2024-01-30T10:37:25;99300.22;;;7.87;78.94
8894;BME280;4483;48.622;9.230;2024-01-30T10:39:53;99292.56;;;7.84;79.26
8894;BME280;4483;48.622;9.230;2024-01-30T10:42:20;99284.91;;;7.80;79.23
8894;BME280;4483;48.622;9.230;2024-01-30T10:44:56;99289.16;;;7.81;79.19
8894;BME280;4483;48.622;9.230;2024-01-30T10:47:27;99282.38;;;7.74;78.99
8894;BME280;4483;48.622;9.230;2024-01-30T10:49:55;99288.34;;;7.71;80.41
8894;BME280;4483;48.622;9.230;2024-01-30T10:52:24;99282.38;;;7.74;80.40
8894;BME280;4483;48.622;9.230;2024-01-30T10:54:54;99280.66;;;7.76;80.43
8894;BME280;4483;48.622;9.230;2024-01-30T10:57:23;99282.34;;;7.80;80.25
8894;BME280;4483;48.622;9.230;2024-01-30T10:59:51;99280.59;;;7.85;80.81
8894;BME280;4483;48.622;9.230;2024-01-30T11:02:19;99273.66;;;7.93;80.56
8894;BME280;4483;48.622;9.230;2024-01-30T11:04:46;99272.81;;;7.95;80.47
8894;BME280;4483;48.622;9.230;2024-01-30T11:07:16;99272.75;;;8.03;80.49
8894;BME280;4483;48.622;9.230;2024-01-30T11:09:50;99266.69;;;8.11;80.40
8894;BME280;4483;48.622;9.230;2024-01-30T11:12:21;99268.34;;;8.20;80.79
8894;BME280;4483;48.622;9.230;2024-01-30T11:14:49;99267.44;;;8.24;79.93
8894;BME280;4483;48.622;9.230;2024-01-30T11:17:15;99269.13;;;8.28;79.88
8894;BME280;4483;48.622;9.230;2024-01-30T11:19:42;99264.84;;;8.30;80.04
8894;BME280;4483;48.622;9.230;2024-01-30T11:22:10;99266.56;;;8.31;80.61
8894;BME280;4483;48.622;9.230;2024-01-30T11:24:39;99269.94;;;8.36;80.39
8894;BME280;4483;48.622;9.230;2024-01-30T11:27:09;99266.44;;;8.43;80.25
8894;BME280;4483;48.622;9.230;2024-01-30T11:29:36;99259.56;;;8.45;80.13
8894;BME280;4483;48.622;9.230;2024-01-30T11:32:03;99267.25;;;8.47;80.35
8894;BME280;4483;48.622;9.230;2024-01-30T11:34:32;99268.13;;;8.47;80.27
8894;BME280;4483;48.622;9.230;2024-01-30T11:37:03;99262.09;;;8.48;80.83
8894;BME280;4483;48.622;9.230;2024-01-30T11:39:29;99263.78;;;8.51;81.49
8894;BME280;4483;48.622;9.230;2024-01-30T11:41:57;99259.47;;;8.56;81.31
8894;BME280;4483;48.622;9.230;2024-01-30T11:44:26;99258.53;;;8.63;80.86
8894;BME280;4483;48.622;9.230;2024-01-30T11:46:52;99261.03;;;8.69;80.96
8894;BME280;4483;48.622;9.230;2024-01-30T11:49:19;99256.66;;;8.78;81.28
8894;BME280;4483;48.622;9.230;2024-01-30T11:51:46;99254.88;;;8.83;81.81
8894;BME280;4483;48.622;9.230;2024-01-30T11:54:14;99255.66;;;8.88;82.02
8894;BME280;4483;48.622;9.230;2024-01-30T11:56:40;99246.16;;;8.96;81.89
8894;BME280;4483;48.622;9.230;2024-01-30T11:59:08;99240.06;;;9.03;81.79
8894;BME280;4483;48.622;9.230;2024-01-30T12:01:36;99239.13;;;9.10;80.79
8894;BME280;4483;48.622;9.230;2024-01-30T12:04:04;99226.19;;;9.17;80.56
8894;BME280;4483;48.622;9.230;2024-01-30T12:06:34;99225.28;;;9.21;80.51
8894;BME280;4483;48.622;9.230;2024-01-30T12:09:02;99225.25;;;9.24;80.85
8894;BME280;4483;48.622;9.230;2024-01-30T12:11:30;99218.38;;;9.24;80.77
8894;BME280;4483;48.622;9.230;2024-01-30T12:13:57;99214.94;;;9.25;80.42
8894;BME280;4483;48.622;9.230;2024-01-30T12:16:24;99213.16;;;9.29;80.28
8894;BME280;4483;48.622;9.230;2024-01-30T12:19:00;99216.53;;;9.32;81.01
8894;BME280;4483;48.622;9.230;2024-01-30T12:21:28;99208.75;;;9.38;81.21
8894;BME280;4483;48.622;9.230;2024-01-30T12:23:54;99206.13;;;9.43;80.47
8894;BME280;4483;48.622;9.230;2024-01-30T12:26:21;99203.44;;;9.49;80.82
8894;BME280;4483;48.622;9.230;2024-01-30T12:28:48;99204.25;;;9.54;80.53
8894;BME280;4483;48.622;9.230;2024-01-30T12:31:15;99203.31;;;9.59;80.83
8894;BME280;4483;48.622;9.230;2024-01-30T12:33:42;99194.63;;;9.65;80.11
8894;BME280;4483;48.622;9.230;2024-01-30T12:36:11;99200.53;;;9.71;80.86
8894;BME280;4483;48.622;9.230;2024-01-30T12:38:38;99197.03;;;9.75;80.97
8894;BME280;4483;48.622;9.230;2024-01-30T12:41:07;99190.97;;;9.78;80.70
8894;BME280;4483;48.622;9.230;2024-01-30T12:43:33;99191.78;;;9.83;80.52
8894;BME280;4483;48.622;9.230;2024-01-30T12:46:00;99189.91;;;9.91;80.89
8894;BME280;4483;48.622;9.230;2024-01-30T12:48:28;99188.88;;;10.01;81.17
8894;BME280;4483;48.622;9.230;2024-01-30T12:50:55;99195.59;;;10.11;80.71
8894;BME280;4483;48.622;9.230;2024-01-30T12:53:23;99189.31;;;10.27;80.61
8894;BME280;4483;48.622;9.230;2024-01-30T12:55:50;99189.63;;;10.56;79.54
8894;BME280;4483;48.622;9.230;2024-01-30T12:58:16;99190.75;;;10.84;79.28
8894;BME280;4483;48.622;9.230;2024-01-30T13:00:43;99186.81;;;11.08;79.02
8894;BME280;4483;48.622;9.230;2024-01-30T13:03:10;99188.22;;;11.24;78.11
8894;BME280;4483;48.622;9.230;2024-01-30T13:05:37;99183.50;;;11.41;77.51
8894;BME280;4483;48.622;9.230;2024-01-30T13:08:04;99182.53;;;11.47;76.35
8894;BME280;4483;48.622;9.230;2024-01-30T13:10:32;99183.28;;;11.52;76.29
8894;BME280;4483;48.622;9.230;2024-01-30T13:12:58;99183.97;;;11.58;76.12
8894;BME280;4483;48.622;9.230;2024-01-30T13:15:25;99185.66;;;11.61;75.05
8894;BME280;4483;48.622;9.230;2024-01-30T13:17:52;99174.47;;;11.60;74.56
8894;BME280;4483;48.622;9.230;2024-01-30T13:20:19;99183.16;;;11.56;75.32
8894;BME280;4483;48.622;9.230;2024-01-30T13:22:47;99183.25;;;11.53;75.43
8894;BME280;4483;48.622;9.230;2024-01-30T13:25:14;99180.72;;;11.52;75.74